Time;durP1;ratioP1;P1;durP2;ratioP2;P2;SDS_P1;SDS_P2;PMS_P1;PMS_P2;Temp;Humidity;BMP_temperature;BMP_pressure;BME280_temperature;BME280_humidity;BME280_pressure;Samples;Min_cycle;Max_cycle;Signal;HPM_P1;HPM_P2
2023/12/23 00:02:10;;;;;;;1.73;0.70;;;6.20;99.90;;;;;;4934723;29;20673;-49
2023/12/23 00:04:36;;;;;;;8.27;0.93;;;6.20;99.90;;;;;;4934620;29;20757;-50
2023/12/23 00:07:01;;;;;;;2.97;1.00;;;6.20;99.90;;;;;;4934284;29;20187;-55
2023/12/23 00:09:27;;;;;;;2.23;1.10;;;6.20;99.90;;;;;;4933813;29;20649;-47
2023/12/23 00:11:53;;;;;;;5.03;0.93;;;6.20;99.90;;;;;;4934482;29;20183;-55
2023/12/23 00:14:18;;;;;;;2.97;1.10;;;6.20;99.90;;;;;;4934668;29;20179;-50
2023/12/23 00:16:44;;;;;;;2.53;1.10;;;6.30;99.90;;;;;;4934580;29;20270;-50
2023/12/23 00:19:09;;;;;;;4.53;1.20;;;6.30;99.90;;;;;;4933893;29;20199;-50
2023/12/23 00:21:35;;;;;;;2.60;1.20;;;6.30;99.90;;;;;;4933100;29;20214;-49
2023/12/23 00:24:01;;;;;;;8.07;1.30;;;6.20;99.90;;;;;;4934230;29;20190;-50
2023/12/23 00:26:26;;;;;;;3.77;1.27;;;6.20;99.90;;;;;;4934240;29;20207;-49
2023/12/23 00:28:52;;;;;;;2.57;0.97;;;6.20;99.90;;;;;;4933488;29;20239;-50
2023/12/23 00:31:18;;;;;;;3.77;1.43;;;6.30;99.90;;;;;;4934167;29;20703;-51
2023/12/23 00:33:44;;;;;;;5.50;1.30;;;6.30;99.90;;;;;;4934039;29;20211;-48
2023/12/23 00:36:10;;;;;;;7.03;1.47;;;6.30;99.90;;;;;;4933795;29;20178;-48
2023/12/23 00:38:36;;;;;;;4.17;1.27;;;6.30;99.90;;;;;;4934145;29;20278;-50
2023/12/23 00:41:02;;;;;;;7.87;1.17;;;6.20;99.90;;;;;;4933411;29;20740;-49
2023/12/23 00:43:27;;;;;;;10.10;1.60;;;6.20;99.90;;;;;;4933963;29;20234;-50
2023/12/23 00:45:55;;;;;;;2.93;1.70;;;6.20;99.90;;;;;;4933544;29;20305;-54
2023/12/23 00:48:20;;;;;;;4.77;1.40;;;6.30;99.90;;;;;;4926349;29;20175;-49
2023/12/23 00:50:46;;;;;;;2.20;1.10;;;6.30;99.90;;;;;;4933249;29;20202;-50
2023/12/23 00:53:11;;;;;;;3.97;1.30;;;6.20;99.90;;;;;;4933434;29;20198;-49
2023/12/23 00:55:38;;;;;;;7.53;1.67;;;6.30;99.90;;;;;;4933901;29;20187;-50
2023/12/23 00:58:03;;;;;;;3.97;1.00;;;6.30;99.90;;;;;;4933555;29;20211;-48
2023/12/23 01:00:29;;;;;;;6.90;1.10;;;6.30;99.90;;;;;;4932405;29;20321;-50
2023/12/23 01:02:54;;;;;;;3.47;1.10;;;6.30;99.90;;;;;;4933508;29;20194;-49
2023/12/23 01:05:20;;;;;;;3.73;1.07;;;6.30;99.90;;;;;;4933442;29;20202;-50
2023/12/23 01:07:46;;;;;;;6.30;1.20;;;6.30;99.90;;;;;;4933490;29;20278;-49
2023/12/23 01:10:11;;;;;;;7.13;1.20;;;6.30;99.90;;;;;;4932606;29;20293;-53
2023/12/23 01:12:37;;;;;;;3.93;1.10;;;6.30;99.90;;;;;;4933478;29;20195;-51
2023/12/23 01:15:03;;;;;;;9.77;1.30;;;6.30;99.90;;;;;;4933780;29;20221;-50
2023/12/23 01:17:28;;;;;;;3.97;1.37;;;6.40;99.90;;;;;;4933485;29;20752;-50
2023/12/23 01:19:54;;;;;;;4.57;1.27;;;6.30;99.90;;;;;;4932719;29;20289;-52
2023/12/23 01:22:20;;;;;;;9.57;1.40;;;6.30;99.90;;;;;;4925616;29;20186;-49
2023/12/23 01:24:45;;;;;;;7.70;1.80;;;6.30;99.90;;;;;;4933332;29;20210;-49
2023/12/23 01:27:11;;;;;;;3.90;1.43;;;6.30;99.90;;;;;;4933240;29;20274;-50
2023/12/23 01:29:36;;;;;;;2.90;1.37;;;6.30;99.90;;;;;;4932656;29;20505;-50
2023/12/23 01:32:02;;;;;;;5.47;1.50;;;6.30;99.90;;;;;;4933280;29;20273;-50
2023/12/23 01:34:27;;;;;;;5.53;1.10;;;6.30;99.90;;;;;;4933332;29;20621;-49
2023/12/23 01:36:53;;;;;;;3.80;1.50;;;6.30;99.90;;;;;;4933062;29;20194;-52
2023/12/23 01:39:18;;;;;;;13.10;1.90;;;6.30;99.90;;;;;;4932370;29;20216;-50
2023/12/23 01:41:44;;;;;;;4.50;1.40;;;6.30;99.90;;;;;;4932968;29;20246;-51
2023/12/23 01:44:09;;;;;;;6.47;1.67;;;6.30;99.90;;;;;;4932901;29;20202;-50
2023/12/23 01:46:35;;;;;;;3.77;1.50;;;6.30;99.90;;;;;;4933082;29;20223;-50
2023/12/23 01:49:01;;;;;;;10.90;1.80;;;6.30;99.90;;;;;;4932450;29;20198;-49
2023/12/23 01:51:28;;;;;;;10.97;1.47;;;6.30;99.90;;;;;;4932898;29;20206;-50
2023/12/23 01:54:03;;;;;;;4.67;1.47;;;6.20;99.90;;;;;;4933064;29;20673;-51
2023/12/23 01:56:28;;;;;;;7.40;1.43;;;6.20;99.90;;;;;;4926498;29;20190;-50
2023/12/23 01:58:54;;;;;;;3.07;1.10;;;6.20;99.90;;;;;;4932628;29;20820;-53
2023/12/23 02:01:20;;;;;;;4.20;1.40;;;6.20;99.90;;;;;;4925428;29;20241;-49
2023/12/23 02:03:46;;;;;;;5.80;1.30;;;6.20;99.90;;;;;;4932871;29;20602;-50
2023/12/23 02:06:11;;;;;;;2.60;1.07;;;6.20;99.90;;;;;;4932645;29;20253;-49
2023/12/23 02:08:37;;;;;;;6.00;1.33;;;6.10;99.90;;;;;;4932938;29;20261;-50
2023/12/23 02:11:06;;;;;;;4.43;1.60;;;6.10;99.90;;;;;;4932380;29;20211;-49
2023/12/23 02:13:54;;;;;;;5.93;1.30;;;6.10;99.90;;;;;;4936691;29;20648;-50
2023/12/23 02:16:21;;;;;;;10.07;1.30;;;6.10;99.90;;;;;;4936156;29;20195;-53
2023/12/23 02:18:47;;;;;;;3.37;1.37;;;6.10;99.90;;;;;;4936078;29;20228;-50
2023/12/23 02:21:12;;;;;;;3.53;1.67;;;6.00;99.90;;;;;;4936207;29;20210;-49
2023/12/23 02:23:38;;;;;;;6.87;1.23;;;6.00;99.90;;;;;;4937152;29;20220;-53
2023/12/23 02:26:05;;;;;;;5.07;1.30;;;6.00;99.90;;;;;;4936300;29;20297;-52
2023/12/23 02:28:32;;;;;;;3.60;1.10;;;6.00;99.90;;;;;;4936404;29;20214;-50
2023/12/23 02:30:57;;;;;;;2.93;1.00;;;6.00;99.90;;;;;;4935660;29;20277;-50
2023/12/23 02:33:23;;;;;;;1.87;1.13;;;6.00;99.90;;;;;;4936288;29;20188;-49
2023/12/23 02:35:52;;;;;;;3.40;1.00;;;6.00;99.90;;;;;;4936250;29;20195;-49
2023/12/23 02:38:20;;;;;;;2.23;1.00;;;6.00;99.90;;;;;;4936456;29;20214;-51
2023/12/23 02:40:46;;;;;;;1.30;0.70;;;5.90;99.90;;;;;;4935757;29;20215;-49
2023/12/23 02:43:11;;;;;;;5.00;1.03;;;6.00;99.90;;;;;;4935978;29;20285;-53
2023/12/23 02:45:37;;;;;;;2.03;0.80;;;5.90;99.90;;;;;;4936258;29;20218;-53
2023/12/23 02:48:05;;;;;;;4.77;0.97;;;5.90;99.90;;;;;;4935887;29;20183;-50
2023/12/23 02:50:31;;;;;;;7.47;0.90;;;5.90;99.90;;;;;;4935328;29;20196;-49
2023/12/23 02:52:57;;;;;;;8.40;0.77;;;5.90;99.90;;;;;;4935695;29;20186;-52
2023/12/23 02:55:23;;;;;;;4.40;0.70;;;5.90;99.90;;;;;;4935955;29;20655;-49
2023/12/23 02:57:48;;;;;;;1.00;0.70;;;5.90;99.90;;;;;;4935985;29;20226;-52
2023/12/23 03:00:14;;;;;;;1.77;0.70;;;5.90;99.90;;;;;;4934861;29;20229;-51
2023/12/23 03:02:40;;;;;;;5.60;0.60;;;5.90;99.90;;;;;;4943945;29;20559;-50
2023/12/23 03:05:06;;;;;;;6.20;1.10;;;5.90;99.90;;;;;;4935459;29;20226;-50
2023/12/23 03:07:31;;;;;;;3.23;0.80;;;6.00;99.90;;;;;;4935640;29;20195;-52
2023/12/23 03:09:57;;;;;;;1.90;0.80;;;5.90;99.90;;;;;;4934897;29;20215;-52
2023/12/23 03:12:22;;;;;;;4.23;0.60;;;6.00;99.90;;;;;;4935847;29;20179;-53
2023/12/23 03:14:48;;;;;;;1.30;0.50;;;5.90;99.90;;;;;;4935884;29;20592;-50
2023/12/23 03:17:13;;;;;;;4.57;0.60;;;6.00;99.90;;;;;;4935522;29;20182;-51
2023/12/23 03:19:42;;;;;;;1.33;0.30;;;6.00;99.90;;;;;;4934909;29;20195;-53
2023/12/23 03:22:07;;;;;;;1.17;0.40;;;6.00;99.90;;;;;;4934777;29;20179;-49
2023/12/23 03:24:33;;;;;;;2.47;0.50;;;5.90;99.90;;;;;;4935135;29;20278;-50
2023/12/23 03:26:58;;;;;;;1.27;0.43;;;6.00;99.90;;;;;;4935189;29;20187;-49
2023/12/23 03:29:24;;;;;;;1.20;0.40;;;6.00;99.90;;;;;;4934836;29;20179;-50
2023/12/23 03:31:49;;;;;;;1.50;0.40;;;6.00;99.90;;;;;;4935076;29;20206;-49
2023/12/23 03:34:15;;;;;;;2.00;0.50;;;6.00;99.90;;;;;;4935139;29;20190;-51
2023/12/23 03:36:40;;;;;;;0.90;0.33;;;6.00;99.90;;;;;;4935531;29;20661;-49
2023/12/23 03:39:06;;;;;;;0.40;0.40;;;6.00;99.90;;;;;;4934489;29;20211;-49
2023/12/23 03:41:31;;;;;;;0.60;0.50;;;6.10;99.90;;;;;;4935182;29;20215;-50
2023/12/23 03:43:57;;;;;;;1.70;0.70;;;6.10;99.90;;;;;;4934982;29;20250;-50
2023/12/23 03:46:23;;;;;;;0.80;0.47;;;6.10;99.90;;;;;;4934973;29;20496;-49
2023/12/23 03:48:49;;;;;;;1.07;0.50;;;6.10;99.90;;;;;;4934370;29;20191;-49
2023/12/23 03:51:15;;;;;;;1.00;0.50;;;6.10;99.90;;;;;;4933598;29;20203;-50
2023/12/23 03:53:41;;;;;;;2.93;0.67;;;6.20;99.90;;;;;;4935124;29;20179;-49
2023/12/23 03:56:07;;;;;;;0.70;0.60;;;6.20;99.90;;;;;;4934953;29;20270;-50
2023/12/23 03:58:33;;;;;;;2.23;0.73;;;6.10;99.90;;;;;;4934845;29;20629;-49
2023/12/23 04:00:58;;;;;;;2.43;0.50;;;6.20;99.90;;;;;;4933773;29;20724;-49
2023/12/23 04:03:24;;;;;;;2.17;0.70;;;6.20;99.90;;;;;;4934877;29;20667;-50
2023/12/23 04:05:49;;;;;;;2.97;0.80;;;6.20;99.90;;;;;;4933251;29;20211;-49
2023/12/23 04:08:16;;;;;;;2.10;0.77;;;6.30;99.90;;;;;;4933306;29;20234;-49
2023/12/23 04:10:42;;;;;;;1.03;0.67;;;6.30;99.90;;;;;;4934186;29;20234;-53
2023/12/23 04:13:08;;;;;;;2.70;0.80;;;6.30;99.90;;;;;;4934529;29;20183;-50
2023/12/23 04:15:33;;;;;;;2.23;1.00;;;6.40;99.90;;;;;;4934468;29;20554;-50
2023/12/23 04:17:59;;;;;;;2.20;0.97;;;6.40;99.90;;;;;;4934252;29;20202;-51
2023/12/23 04:20:25;;;;;;;1.77;0.80;;;6.40;99.90;;;;;;4933879;29;20338;-51
2023/12/23 04:22:50;;;;;;;1.97;1.10;;;6.40;99.90;;;;;;4934382;29;20202;-50
2023/12/23 04:25:16;;;;;;;3.70;0.97;;;6.40;99.90;;;;;;4934086;29;20270;-50
2023/12/23 04:27:41;;;;;;;3.60;1.27;;;6.40;99.90;;;;;;4934272;29;20201;-54
2023/12/23 04:30:07;;;;;;;4.43;1.37;;;6.50;99.90;;;;;;4933265;29;20213;-53
2023/12/23 04:32:33;;;;;;;2.70;1.50;;;6.60;99.90;;;;;;4934083;29;20179;-53
2023/12/23 04:34:59;;;;;;;3.13;1.60;;;6.70;99.90;;;;;;4933262;29;20199;-50
2023/12/23 04:37:25;;;;;;;4.73;2.10;;;6.70;99.90;;;;;;4934262;29;20210;-50
2023/12/23 04:39:50;;;;;;;3.93;2.00;;;6.70;99.90;;;;;;4933322;29;20274;-52
2023/12/23 04:42:16;;;;;;;6.63;2.47;;;6.90;99.90;;;;;;4933962;29;20694;-51
2023/12/23 04:44:42;;;;;;;4.60;2.00;;;6.90;99.90;;;;;;4933901;29;20661;-54
2023/12/23 04:47:07;;;;;;;8.60;4.60;;;7.00;99.90;;;;;;4933704;29;20191;-50
2023/12/23 04:49:33;;;;;;;5.90;2.10;;;7.10;99.90;;;;;;4933055;29;20187;-50
2023/12/23 04:51:58;;;;;;;5.50;2.50;;;7.10;99.90;;;;;;4933645;29;20573;-51
2023/12/23 04:54:24;;;;;;;5.83;2.60;;;7.20;99.90;;;;;;4933853;29;20215;-50
2023/12/23 04:56:49;;;;;;;4.23;1.90;;;7.30;99.90;;;;;;4933665;29;20203;-49
2023/12/23 04:59:15;;;;;;;4.87;2.13;;;7.30;99.90;;;;;;4932866;29;20191;-52
2023/12/23 05:01:40;;;;;;;3.27;1.80;;;7.40;99.90;;;;;;4933549;29;20226;-50
2023/12/23 05:04:06;;;;;;;5.23;1.90;;;7.50;99.90;;;;;;4933504;29;20584;-49
2023/12/23 05:06:31;;;;;;;4.63;1.80;;;7.50;99.90;;;;;;4933571;29;20211;-49
2023/12/23 05:08:57;;;;;;;5.00;1.80;;;7.50;99.90;;;;;;4932907;29;20187;-50
2023/12/23 05:11:23;;;;;;;4.93;1.57;;;7.50;99.90;;;;;;4933430;29;20207;-51
2023/12/23 05:13:49;;;;;;;2.70;1.57;;;7.60;99.90;;;;;;4933755;29;20202;-49
2023/12/23 05:16:14;;;;;;;2.53;1.40;;;7.60;99.90;;;;;;4933398;29;20195;-50
2023/12/23 05:18:40;;;;;;;3.83;1.50;;;7.60;99.90;;;;;;4932839;29;20620;-50
2023/12/23 05:21:05;;;;;;;5.70;1.40;;;7.60;99.90;;;;;;4933566;29;20629;-52
2023/12/23 05:23:31;;;;;;;4.53;1.33;;;7.60;99.90;;;;;;4933552;29;20191;-49
2023/12/23 05:25:56;;;;;;;3.63;1.40;;;7.60;99.90;;;;;;4933304;29;20257;-54
2023/12/23 05:28:22;;;;;;;5.13;1.50;;;7.60;99.90;;;;;;4933261;29;20186;-53
2023/12/23 05:30:47;;;;;;;6.20;1.63;;;7.60;99.90;;;;;;4932752;29;20305;-52
2023/12/23 05:33:13;;;;;;;4.57;1.87;;;7.60;99.90;;;;;;4933143;29;20186;-50
2023/12/23 05:35:39;;;;;;;3.03;1.47;;;7.70;99.90;;;;;;4933285;29;20559;-49
2023/12/23 05:38:04;;;;;;;3.67;1.60;;;7.70;99.90;;;;;;4932912;29;20187;-51
2023/12/23 05:40:30;;;;;;;3.23;1.40;;;7.70;99.90;;;;;;4932459;29;20577;-50
2023/12/23 05:42:55;;;;;;;2.40;1.50;;;7.70;99.90;;;;;;4933308;29;20257;-51
2023/12/23 05:45:21;;;;;;;6.87;1.60;;;7.60;99.90;;;;;;4932748;29;20270;-49
2023/12/23 05:47:49;;;;;;;7.10;1.70;;;7.60;99.90;;;;;;4933005;29;20198;-52
2023/12/23 05:50:15;;;;;;;6.20;1.47;;;7.60;99.90;;;;;;4932639;29;20298;-50
2023/12/23 05:52:41;;;;;;;2.80;1.47;;;7.60;99.90;;;;;;4932962;29;20222;-54
2023/12/23 05:55:07;;;;;;;3.23;1.30;;;7.60;99.90;;;;;;4932871;29;20251;-49
2023/12/23 05:57:33;;;;;;;4.80;1.80;;;7.50;99.90;;;;;;4933018;29;20195;-49
2023/12/23 05:59:58;;;;;;;4.33;1.23;;;7.60;99.90;;;;;;4932255;29;20634;-54
2023/12/23 06:02:24;;;;;;;7.37;1.70;;;7.60;99.90;;;;;;4932839;29;20659;-50
2023/12/23 06:04:49;;;;;;;4.73;1.70;;;7.60;99.90;;;;;;4932863;29;20688;-49
2023/12/23 06:07:15;;;;;;;2.40;1.30;;;7.60;99.90;;;;;;4932650;29;20602;-50
2023/12/23 06:09:40;;;;;;;4.40;1.33;;;7.60;99.90;;;;;;4932350;29;20195;-51
2023/12/23 06:12:06;;;;;;;2.63;1.20;;;7.60;99.90;;;;;;4932672;29;20191;-51
2023/12/23 06:14:32;;;;;;;2.43;1.17;;;7.60;99.90;;;;;;4932870;29;20190;-49
2023/12/23 06:16:57;;;;;;;6.93;1.43;;;7.60;99.90;;;;;;4932380;29;20661;-56
2023/12/23 06:19:23;;;;;;;6.13;1.20;;;7.60;99.90;;;;;;4932547;29;20205;-50
2023/12/23 06:21:48;;;;;;;2.63;1.20;;;7.60;99.90;;;;;;4932720;29;20623;-50
2023/12/23 06:24:14;;;;;;;3.83;1.30;;;7.60;99.90;;;;;;4932836;29;20307;-51
2023/12/23 06:26:40;;;;;;;2.77;1.20;;;7.60;99.90;;;;;;4932661;29;20222;-50
2023/12/23 06:29:05;;;;;;;3.93;1.30;;;7.60;99.90;;;;;;4932036;29;20680;-50
2023/12/23 06:31:32;;;;;;;3.50;1.23;;;7.60;99.90;;;;;;4932537;29;20206;-51
2023/12/23 06:33:57;;;;;;;3.93;1.30;;;7.60;99.90;;;;;;4932491;29;20191;-54
2023/12/23 06:36:23;;;;;;;2.83;1.20;;;7.60;99.90;;;;;;4932335;29;20556;-53
2023/12/23 06:38:48;;;;;;;4.60;1.30;;;7.50;99.90;;;;;;4932216;29;20199;-50
2023/12/23 06:41:14;;;;;;;5.30;1.60;;;7.60;99.90;;;;;;4932519;29;20325;-50
2023/12/23 06:43:39;;;;;;;4.33;1.40;;;7.60;99.90;;;;;;4932610;29;20230;-53
2023/12/23 06:46:05;;;;;;;5.73;1.20;;;7.60;99.90;;;;;;4932273;29;20214;-49
2023/12/23 06:48:31;;;;;;;4.93;1.27;;;7.60;99.90;;;;;;4932293;29;20334;-50
2023/12/23 06:50:56;;;;;;;6.80;1.30;;;7.60;99.90;;;;;;4931952;29;20214;-52
2023/12/23 06:53:22;;;;;;;2.53;1.20;;;7.60;99.90;;;;;;4932301;29;20183;-51
2023/12/23 06:55:47;;;;;;;2.00;1.10;;;7.60;99.90;;;;;;4938930;29;20252;-51
2023/12/23 06:58:13;;;;;;;5.47;0.90;;;7.70;99.90;;;;;;4934982;28;20235;-53
2023/12/23 07:00:38;;;;;;;2.73;1.00;;;7.70;99.90;;;;;;4935037;29;20245;-51
2023/12/23 07:03:06;;;;;;;5.73;1.23;;;7.70;99.90;;;;;;4935547;29;20218;-49
2023/12/23 07:05:31;;;;;;;2.00;1.20;;;7.60;99.90;;;;;;4935801;29;20207;-51
2023/12/23 07:07:57;;;;;;;4.03;1.30;;;7.60;99.90;;;;;;4935815;29;20198;-54
2023/12/23 07:10:22;;;;;;;2.23;1.00;;;7.70;99.90;;;;;;4934923;29;20290;-53
2023/12/23 07:12:48;;;;;;;2.23;1.10;;;7.70;99.90;;;;;;4935725;29;20274;-53
2023/12/23 07:15:14;;;;;;;2.33;1.00;;;7.70;99.90;;;;;;4934847;29;20274;-51
2023/12/23 07:17:39;;;;;;;9.80;1.10;;;7.60;99.90;;;;;;4935724;29;20290;-50
2023/12/23 07:20:05;;;;;;;3.30;0.90;;;7.70;99.90;;;;;;4934555;29;20218;-50
2023/12/23 07:22:31;;;;;;;2.20;1.00;;;7.70;99.90;;;;;;4935200;29;20469;-51
2023/12/23 07:24:56;;;;;;;4.00;0.80;;;7.70;99.90;;;;;;4935174;29;20211;-51
2023/12/23 07:27:22;;;;;;;2.70;1.13;;;7.70;99.90;;;;;;4934929;29;20211;-52
2023/12/23 07:29:48;;;;;;;8.07;1.93;;;7.70;99.90;;;;;;4934461;29;20616;-49
2023/12/23 07:32:14;;;;;;;3.37;1.13;;;7.70;99.90;;;;;;4935357;29;20707;-51
2023/12/23 07:34:40;;;;;;;3.33;1.10;;;7.70;99.90;;;;;;4935279;29;20265;-50
2023/12/23 07:37:08;;;;;;;8.90;1.20;;;7.70;99.90;;;;;;4934978;29;20179;-49
2023/12/23 07:39:33;;;;;;;3.40;1.30;;;7.70;99.90;;;;;;4934469;29;20213;-51
2023/12/23 07:42:00;;;;;;;5.10;1.17;;;7.70;99.90;;;;;;4935014;29;20665;-50
2023/12/23 07:44:25;;;;;;;2.23;1.00;;;7.80;99.90;;;;;;4927566;29;20175;-50
2023/12/23 07:46:51;;;;;;;2.93;1.10;;;7.80;99.90;;;;;;4935288;29;20373;-49
2023/12/23 07:49:16;;;;;;;4.87;1.10;;;7.80;99.90;;;;;;4934227;29;20198;-50
2023/12/23 07:51:42;;;;;;;1.60;1.00;;;7.80;99.90;;;;;;4934767;29;20214;-50
2023/12/23 07:54:08;;;;;;;3.53;1.20;;;7.80;99.90;;;;;;4934174;29;20286;-51
2023/12/23 07:56:33;;;;;;;2.50;1.47;;;7.90;99.90;;;;;;4934070;29;20198;-53
2023/12/23 07:58:59;;;;;;;3.10;0.70;;;7.80;99.90;;;;;;4933074;29;20329;-55
2023/12/23 08:01:24;;;;;;;3.87;1.37;;;7.90;99.90;;;;;;4933714;29;20226;-53
2023/12/23 08:03:50;;;;;;;2.13;1.00;;;7.80;99.90;;;;;;4933986;29;20606;-53
2023/12/23 08:06:18;;;;;;;7.37;1.60;;;7.80;99.90;;;;;;4934171;29;20696;-55
2023/12/23 08:08:44;;;;;;;3.63;1.20;;;7.90;99.90;;;;;;4932944;29;20212;-56
2023/12/23 08:11:09;;;;;;;3.63;1.30;;;7.90;99.90;;;;;;4933113;29;20238;-52
2023/12/23 08:13:36;;;;;;;2.83;1.13;;;7.90;99.90;;;;;;4934130;29;20179;-53
2023/12/23 08:16:02;;;;;;;1.87;1.00;;;7.90;99.90;;;;;;4933873;29;20524;-54
2023/12/23 08:18:29;;;;;;;3.97;1.10;;;8.00;99.90;;;;;;4933869;29;20187;-51
2023/12/23 08:20:55;;;;;;;2.63;0.83;;;7.90;99.90;;;;;;4933531;29;20211;-52
2023/12/23 08:23:21;;;;;;;4.30;0.90;;;7.90;99.90;;;;;;4933662;29;20696;-51
2023/12/23 08:25:47;;;;;;;2.77;0.87;;;7.90;99.90;;;;;;4933669;29;20259;-53
2023/12/23 08:28:12;;;;;;;1.47;0.83;;;8.00;99.90;;;;;;4933280;29;20187;-51
2023/12/23 08:30:39;;;;;;;1.00;0.90;;;8.00;99.90;;;;;;4933085;29;20209;-49
2023/12/23 08:33:05;;;;;;;0.97;0.73;;;8.00;99.90;;;;;;4933862;29;20186;-51
2023/12/23 08:35:31;;;;;;;1.40;0.80;;;8.00;99.90;;;;;;4933678;29;20258;-50
2023/12/23 08:37:57;;;;;;;2.57;0.93;;;8.00;99.90;;;;;;4933797;29;20238;-50
2023/12/23 08:40:23;;;;;;;1.77;0.80;;;8.00;99.90;;;;;;4932686;29;20308;-49
2023/12/23 08:42:48;;;;;;;5.53;1.10;;;8.00;99.90;;;;;;4933553;29;20601;-51
2023/12/23 08:45:14;;;;;;;1.73;1.03;;;8.00;99.90;;;;;;4933402;29;20668;-50
2023/12/23 08:47:40;;;;;;;1.70;0.87;;;8.00;99.90;;;;;;4933483;29;20562;-49
2023/12/23 08:50:06;;;;;;;3.20;1.33;;;8.00;99.90;;;;;;4932593;29;20565;-50
2023/12/23 08:52:31;;;;;;;1.00;0.90;;;8.10;99.90;;;;;;4933540;29;20179;-49
2023/12/23 08:54:57;;;;;;;2.53;0.97;;;8.10;99.90;;;;;;4933533;29;20191;-53
2023/12/23 08:57:22;;;;;;;3.10;1.10;;;8.10;99.90;;;;;;4933049;29;20278;-51
2023/12/23 08:59:48;;;;;;;3.00;1.40;;;8.20;99.90;;;;;;4932764;29;20303;-51
2023/12/23 09:02:13;;;;;;;4.10;1.13;;;8.20;99.90;;;;;;4932597;29;20193;-48
2023/12/23 09:04:39;;;;;;;1.73;0.67;;;8.20;99.90;;;;;;4933182;29;20191;-49
2023/12/23 09:07:06;;;;;;;1.03;0.80;;;8.10;99.90;;;;;;4932661;29;20242;-49
2023/12/23 09:09:32;;;;;;;1.17;1.00;;;8.20;99.90;;;;;;4932444;29;20569;-48
2023/12/23 09:11:57;;;;;;;1.73;0.90;;;8.20;99.90;;;;;;4933069;29;20198;-51
2023/12/23 09:14:23;;;;;;;1.37;0.80;;;8.20;99.90;;;;;;4932706;29;20486;-47
2023/12/23 09:16:48;;;;;;;2.40;0.80;;;8.20;99.90;;;;;;4933018;29;20234;-51
2023/12/23 09:19:14;;;;;;;1.50;0.87;;;8.20;99.90;;;;;;4932266;29;20187;-53
2023/12/23 09:21:39;;;;;;;2.53;0.90;;;8.20;99.90;;;;;;4932144;29;20211;-50
2023/12/23 09:24:05;;;;;;;2.17;1.20;;;8.20;99.90;;;;;;4932636;29;20187;-52
2023/12/23 09:26:31;;;;;;;3.53;1.00;;;8.20;99.90;;;;;;4932670;29;20222;-49
2023/12/23 09:28:56;;;;;;;3.50;1.10;;;8.20;99.90;;;;;;4932228;29;20191;-49
2023/12/23 09:31:22;;;;;;;2.20;1.17;;;8.20;99.90;;;;;;4932687;29;20203;-51
2023/12/23 09:33:47;;;;;;;2.10;1.00;;;8.20;99.90;;;;;;4932858;29;20182;-53
2023/12/23 09:36:13;;;;;;;2.57;1.33;;;8.20;99.90;;;;;;4932666;29;20221;-50
2023/12/23 09:38:38;;;;;;;2.27;1.10;;;8.20;99.90;;;;;;4932452;29;20221;-54
2023/12/23 09:41:04;;;;;;;4.93;1.63;;;8.10;99.90;;;;;;4932321;29;20206;-50
2023/12/23 09:43:32;;;;;;;5.20;1.80;;;8.20;99.90;;;;;;4932680;29;20191;-52
2023/12/23 09:46:00;;;;;;;8.50;2.20;;;8.20;99.90;;;;;;4932614;29;20294;-51
2023/12/23 09:48:25;;;;;;;7.40;2.33;;;8.20;99.90;;;;;;4932376;29;20179;-55
2023/12/23 09:50:51;;;;;;;5.37;2.80;;;8.10;99.90;;;;;;4931999;29;20570;-54
2023/12/23 09:53:21;;;;;;;12.60;2.90;;;8.10;99.90;;;;;;4932290;29;20221;-52
2023/12/23 09:55:47;;;;;;;13.80;3.53;;;8.10;99.90;;;;;;4932459;29;20191;-55
2023/12/23 09:58:13;;;;;;;9.33;3.70;;;8.20;99.90;;;;;;4932624;29;20199;-50
2023/12/23 10:00:44;;;;;;;11.63;4.47;;;8.20;99.90;;;;;;4931473;29;20219;-52
2023/12/23 10:03:09;;;;;;;8.50;3.53;;;8.20;99.90;;;;;;4931552;29;20194;-50
2023/12/23 10:05:41;;;;;;;4.77;2.70;;;8.20;99.90;;;;;;4931629;29;20234;-52
2023/12/23 10:08:07;;;;;;;6.73;3.07;;;8.20;99.90;;;;;;4932158;29;20183;-53
2023/12/23 10:10:33;;;;;;;4.93;2.67;;;8.20;99.90;;;;;;4931665;29;20215;-52
2023/12/23 10:12:58;;;;;;;9.63;2.80;;;8.30;99.90;;;;;;4932421;29;20179;-52
2023/12/23 10:15:24;;;;;;;10.67;2.87;;;8.30;99.90;;;;;;4932623;29;20198;-50
2023/12/23 10:17:50;;;;;;;8.63;2.83;;;8.30;99.90;;;;;;4932502;29;20191;-55
2023/12/23 10:20:15;;;;;;;7.80;2.53;;;8.30;99.90;;;;;;4931782;29;20302;-54
2023/12/23 10:22:44;;;;;;;6.33;2.33;;;8.30;99.90;;;;;;4932515;29;20183;-55
2023/12/23 10:25:10;;;;;;;5.67;2.30;;;8.40;99.90;;;;;;4932109;29;20289;-55
2023/12/23 10:27:43;;;;;;;5.50;2.20;;;8.40;99.90;;;;;;4932329;29;20215;-54
2023/12/23 10:30:10;;;;;;;3.90;1.97;;;8.40;99.90;;;;;;4931509;29;20218;-53
2023/12/23 10:32:37;;;;;;;5.60;2.20;;;8.30;99.90;;;;;;4932848;29;20187;-48
2023/12/23 10:35:05;;;;;;;6.83;2.20;;;8.30;99.90;;;;;;4935739;29;20179;-50
2023/12/23 10:37:33;;;;;;;4.47;2.03;;;8.30;99.90;;;;;;4935700;29;20183;-49
2023/12/23 10:40:18;;;;;;;3.73;1.60;;;8.40;99.90;;;;;;4935208;29;20199;-50
2023/12/23 10:42:45;;;;;;;6.67;1.67;;;8.30;99.90;;;;;;4935728;29;20187;-48
2023/12/23 10:45:12;;;;;;;3.30;1.50;;;8.30;99.90;;;;;;4935443;29;20311;-52
2023/12/23 10:47:39;;;;;;;3.20;1.60;;;8.30;99.90;;;;;;4935527;29;20231;-49
2023/12/23 10:50:06;;;;;;;3.73;1.43;;;8.30;99.90;;;;;;4934906;29;20224;-49
2023/12/23 10:52:33;;;;;;;3.20;1.63;;;8.40;99.90;;;;;;4935588;29;20203;-48
2023/12/23 10:55:02;;;;;;;4.40;1.37;;;8.40;99.90;;;;;;4935543;29;20207;-52
2023/12/23 10:57:29;;;;;;;4.67;1.43;;;8.40;99.90;;;;;;4927847;29;20255;-51
2023/12/23 10:59:55;;;;;;;5.90;1.60;;;8.40;99.90;;;;;;4934926;29;20610;-53
2023/12/23 11:02:29;;;;;;;6.93;1.60;;;8.30;99.90;;;;;;4934827;29;20294;-51
2023/12/23 11:04:56;;;;;;;4.40;1.70;;;8.40;99.90;;;;;;4935191;29;20200;-53
2023/12/23 11:07:29;;;;;;;5.07;1.57;;;8.40;99.90;;;;;;4935072;29;20182;-52
2023/12/23 11:09:58;;;;;;;1.80;1.07;;;8.40;99.90;;;;;;4934578;29;20234;-52
2023/12/23 11:12:24;;;;;;;2.47;1.50;;;8.40;99.90;;;;;;4934911;29;20207;-50
2023/12/23 11:14:50;;;;;;;7.73;3.10;;;8.50;99.90;;;;;;4934892;29;20229;-53
2023/12/23 11:17:27;;;;;;;5.47;2.03;;;8.50;99.90;;;;;;4934998;29;20276;-50
2023/12/23 11:20:03;;;;;;;4.87;1.30;;;8.60;99.90;;;;;;4934503;29;20707;-54
2023/12/23 11:22:40;;;;;;;2.80;1.40;;;8.70;99.90;;;;;;4935049;29;20189;-52
2023/12/23 11:25:42;;;;;;;1.83;1.37;;;8.70;99.90;;;;;;4934596;29;20221;-53
2023/12/23 11:28:12;;;;;;;4.63;1.37;;;8.70;99.90;;;;;;4934936;29;20175;-51
2023/12/23 11:30:48;;;;;;;2.77;1.50;;;8.70;99.90;;;;;;4934432;29;20202;-55
2023/12/23 11:33:14;;;;;;;1.33;1.00;;;8.60;99.90;;;;;;4934523;29;20183;-51
2023/12/23 11:35:51;;;;;;;2.17;1.23;;;8.60;99.90;;;;;;4934622;29;20323;-56
2023/12/23 11:38:17;;;;;;;2.23;0.87;;;8.60;99.90;;;;;;4934509;29;20287;-56
2023/12/23 11:40:43;;;;;;;2.40;0.80;;;8.60;99.90;;;;;;4934090;29;20343;-53
2023/12/23 11:43:08;;;;;;;2.10;1.03;;;8.60;99.90;;;;;;4934487;29;20546;-56
2023/12/23 11:45:37;;;;;;;3.50;0.87;;;8.60;99.90;;;;;;4934485;29;20215;-56
2023/12/23 11:48:05;;;;;;;2.23;0.80;;;8.60;99.90;;;;;;4934412;29;20183;-53
2023/12/23 11:50:30;;;;;;;2.30;0.90;;;8.60;99.90;;;;;;4933711;29;20708;-49
2023/12/23 11:52:56;;;;;;;2.87;0.80;;;8.60;99.90;;;;;;4934303;29;20259;-53
2023/12/23 11:55:23;;;;;;;2.77;1.00;;;8.60;99.90;;;;;;4934143;29;20657;-53
2023/12/23 11:57:48;;;;;;;1.17;0.60;;;8.60;99.90;;;;;;4934487;29;20222;-52
2023/12/23 12:00:14;;;;;;;2.47;0.83;;;8.60;99.90;;;;;;4933609;29;20242;-49
2023/12/23 12:02:40;;;;;;;3.27;0.93;;;8.60;99.90;;;;;;4934481;29;20199;-52
2023/12/23 12:05:06;;;;;;;2.57;1.00;;;8.70;99.90;;;;;;4933737;29;20643;-51
2023/12/23 12:07:32;;;;;;;3.50;1.17;;;8.70;99.90;;;;;;4934094;29;20179;-50
2023/12/23 12:09:57;;;;;;;1.30;0.77;;;8.80;99.90;;;;;;4933588;29;20238;-49
2023/12/23 12:12:23;;;;;;;1.00;0.83;;;8.80;99.90;;;;;;4934012;29;20180;-51
2023/12/23 12:14:49;;;;;;;1.83;0.60;;;8.80;99.90;;;;;;4934152;29;20251;-53
2023/12/23 12:17:15;;;;;;;1.00;0.60;;;8.80;99.90;;;;;;4933850;29;20661;-50
2023/12/23 12:19:40;;;;;;;1.13;0.70;;;8.80;99.90;;;;;;4932592;29;20186;-49
2023/12/23 12:22:06;;;;;;;2.57;0.80;;;8.70;99.90;;;;;;4933684;29;20183;-49
2023/12/23 12:24:33;;;;;;;1.17;0.73;;;8.70;99.90;;;;;;4933802;29;20191;-49
2023/12/23 12:26:59;;;;;;;2.10;0.70;;;8.70;99.90;;;;;;4933764;29;20680;-50
2023/12/23 12:29:25;;;;;;;2.90;0.93;;;8.70;99.90;;;;;;4932873;29;20188;-52
2023/12/23 12:31:51;;;;;;;4.43;0.80;;;8.70;99.90;;;;;;4933808;29;20281;-49
2023/12/23 12:34:17;;;;;;;2.10;0.80;;;8.70;99.90;;;;;;4933780;29;20697;-50
2023/12/23 12:36:43;;;;;;;1.30;0.70;;;8.60;99.90;;;;;;4933823;29;20194;-48
2023/12/23 12:39:09;;;;;;;4.63;1.33;;;8.60;99.90;;;;;;4932843;29;20187;-50
2023/12/23 12:41:37;;;;;;;2.93;0.90;;;8.60;99.90;;;;;;4933331;29;20257;-48
2023/12/23 12:44:03;;;;;;;1.60;0.90;;;8.60;99.90;;;;;;4933432;29;20175;-49
2023/12/23 12:46:33;;;;;;;1.93;1.20;;;8.60;99.90;;;;;;4925833;29;20203;-51
2023/12/23 12:49:00;;;;;;;1.60;1.10;;;8.50;99.90;;;;;;4932914;29;20183;-49
2023/12/23 12:51:26;;;;;;;2.57;1.30;;;8.50;99.90;;;;;;4933146;29;20203;-48
2023/12/23 12:53:51;;;;;;;2.37;1.40;;;8.50;99.90;;;;;;4932590;29;20282;-49